createdAt,value
2023-01-12T00:02:22.088Z,100.00
2023-01-12T00:04:49.993Z,100.00
2023-01-12T00:07:18.295Z,100.00
2023-01-12T00:09:45.913Z,100.00
2023-01-12T00:12:13.799Z,100.00
2023-01-12T00:14:41.369Z,100.00
2023-01-12T00:17:11.876Z,100.00
2023-01-12T00:19:40.235Z,100.00
2023-01-12T00:22:11.657Z,100.00
2023-01-12T00:24:45.437Z,100.00
2023-01-12T00:27:16.907Z,100.00
2023-01-12T00:29:46.599Z,100.00
2023-01-12T00:32:20.031Z,100.00
2023-01-12T00:34:47.751Z,100.00
2023-01-12T00:37:15.647Z,100.00
2023-01-12T00:39:53.107Z,100.00
2023-01-12T00:42:42.907Z,100.00
2023-01-12T00:45:31.396Z,100.00
2023-01-12T00:47:59.018Z,100.00
2023-01-12T00:50:26.592Z,100.00
2023-01-12T00:52:54.016Z,100.00
2023-01-12T00:55:21.574Z,100.00
2023-01-12T00:57:49.137Z,100.00
2023-01-12T01:00:17.715Z,100.00
2023-01-12T01:02:45.330Z,100.00
2023-01-12T01:05:13.027Z,100.00
2023-01-12T01:07:40.514Z,100.00
2023-01-12T01:10:09.017Z,100.00
2023-01-12T01:12:36.751Z,100.00
2023-01-12T01:15:04.696Z,100.00
2023-01-12T01:17:32.281Z,100.00
2023-01-12T01:19:59.787Z,100.00
2023-01-12T01:22:27.661Z,100.00
2023-01-12T01:24:55.137Z,100.00
2023-01-12T01:27:22.678Z,100.00
2023-01-12T01:29:50.152Z,100.00
2023-01-12T01:32:17.653Z,100.00
2023-01-12T01:34:46.481Z,100.00
2023-01-12T01:37:14.034Z,100.00
2023-01-12T01:39:41.494Z,100.00
2023-01-12T01:42:28.345Z,100.00
2023-01-12T01:44:59.393Z,100.00
2023-01-12T01:47:39.952Z,100.00
2023-01-12T01:50:18.893Z,100.00
2023-01-12T01:52:53.857Z,100.00
2023-01-12T01:55:37.056Z,100.00
2023-01-12T01:58:15.438Z,100.00
2023-01-12T02:00:44.420Z,100.00
2023-01-12T02:03:13.678Z,100.00
2023-01-12T02:05:46.168Z,100.00
2023-01-12T02:08:51.749Z,100.00
2023-01-12T02:11:39.233Z,100.00
2023-01-12T02:14:25.383Z,100.00
2023-01-12T02:17:31.365Z,100.00
2023-01-12T02:20:39.967Z,100.00
2023-01-12T02:23:54.545Z,100.00
2023-01-12T02:26:53.161Z,100.00
2023-01-12T02:29:38.577Z,100.00
2023-01-12T02:32:30.812Z,100.00
2023-01-12T02:35:22.386Z,100.00
2023-01-12T02:38:03.191Z,100.00
2023-01-12T02:40:59.371Z,100.00
2023-01-12T02:43:31.690Z,100.00
2023-01-12T02:46:23.416Z,100.00
2023-01-12T02:48:56.330Z,100.00
2023-01-12T02:51:51.267Z,100.00
2023-01-12T02:54:21.289Z,100.00
2023-01-12T02:56:53.906Z,100.00
2023-01-12T02:59:27.172Z,100.00
2023-01-12T03:02:04.735Z,100.00
2023-01-12T03:04:33.671Z,100.00
2023-01-12T03:07:01.030Z,100.00
2023-01-12T03:09:37.925Z,100.00
2023-01-12T03:12:19.653Z,100.00
2023-01-12T03:14:51.854Z,100.00
2023-01-12T03:17:40.341Z,100.00
2023-01-12T03:20:24.429Z,100.00
2023-01-12T03:23:00.896Z,100.00
2023-01-12T03:25:32.873Z,100.00
2023-01-12T03:28:04.948Z,100.00
2023-01-12T03:30:56.838Z,100.00
2023-01-12T03:33:25.993Z,100.00
2023-01-12T03:36:22.111Z,100.00
2023-01-12T03:39:32.784Z,100.00
2023-01-12T03:42:29.040Z,100.00
2023-01-12T03:45:39.575Z,100.00
2023-01-12T03:48:47.024Z,100.00
2023-01-12T03:51:24.072Z,100.00
2023-01-12T03:53:53.312Z,100.00
2023-01-12T03:56:25.325Z,100.00
2023-01-12T03:58:53.507Z,100.00
2023-01-12T04:01:21.221Z,100.00
2023-01-12T04:03:48.719Z,100.00
2023-01-12T04:06:16.676Z,100.00
2023-01-12T04:08:44.101Z,100.00
2023-01-12T04:11:30.358Z,100.00
2023-01-12T04:13:57.836Z,100.00
2023-01-12T04:16:25.482Z,100.00
2023-01-12T04:18:52.969Z,100.00
2023-01-12T04:21:39.282Z,100.00
2023-01-12T04:24:06.999Z,100.00
2023-01-12T04:26:34.428Z,100.00
2023-01-12T04:29:02.406Z,100.00
2023-01-12T04:31:29.929Z,100.00
2023-01-12T04:33:57.476Z,100.00
2023-01-12T04:36:25.015Z,100.00
2023-01-12T04:38:52.434Z,100.00
2023-01-12T04:41:19.881Z,100.00
2023-01-12T04:43:47.727Z,100.00
2023-01-12T04:46:15.931Z,100.00
2023-01-12T04:48:45.589Z,100.00
2023-01-12T04:51:13.734Z,100.00
2023-01-12T04:53:41.248Z,100.00
2023-01-12T04:56:09.742Z,100.00
2023-01-12T04:58:37.532Z,100.00
2023-01-12T05:01:19.935Z,100.00
2023-01-12T05:03:47.457Z,100.00
2023-01-12T05:06:14.977Z,100.00
2023-01-12T05:09:01.031Z,100.00
2023-01-12T05:11:29.924Z,100.00
2023-01-12T05:13:58.212Z,100.00
2023-01-12T05:16:26.738Z,100.00
2023-01-12T05:18:54.492Z,100.00
2023-01-12T05:21:23.257Z,100.00
2023-01-12T05:23:54.637Z,100.00
2023-01-12T05:26:22.128Z,100.00
2023-01-12T05:28:50.635Z,100.00
2023-01-12T05:31:19.674Z,100.00
2023-01-12T05:33:48.890Z,100.00
2023-01-12T05:36:18.209Z,100.00
2023-01-12T05:38:45.663Z,100.00
2023-01-12T05:41:14.865Z,100.00
2023-01-12T05:43:52.629Z,100.00
2023-01-12T05:46:27.910Z,100.00
2023-01-12T05:48:57.570Z,100.00
2023-01-12T05:51:27.727Z,100.00
2023-01-12T05:53:55.656Z,100.00
2023-01-12T05:56:28.176Z,100.00
2023-01-12T05:58:58.815Z,100.00
2023-01-12T06:01:28.057Z,100.00
2023-01-12T06:04:01.431Z,100.00
2023-01-12T06:06:31.491Z,100.00
2023-01-12T06:09:00.951Z,100.00
2023-01-12T06:11:47.297Z,100.00
2023-01-12T06:14:17.929Z,100.00
2023-01-12T06:16:45.469Z,100.00
2023-01-12T06:19:13.435Z,100.00
2023-01-12T06:21:41.399Z,100.00
2023-01-12T06:24:09.559Z,100.00
2023-01-12T06:26:37.027Z,100.00
2023-01-12T06:29:07.039Z,100.00
2023-01-12T06:31:34.709Z,100.00
2023-01-12T06:34:02.389Z,100.00
2023-01-12T06:36:29.880Z,100.00
2023-01-12T06:38:57.356Z,100.00
2023-01-12T06:41:43.431Z,100.00
2023-01-12T06:44:10.888Z,100.00
2023-01-12T06:46:38.435Z,100.00
2023-01-12T06:49:06.193Z,100.00
2023-01-12T06:51:33.665Z,100.00
2023-01-12T06:54:01.529Z,100.00
2023-01-12T06:56:29.383Z,100.00
2023-01-12T06:58:56.911Z,100.00
2023-01-12T07:01:27.050Z,100.00
2023-01-12T07:03:54.916Z,100.00
2023-01-12T07:06:22.521Z,100.00
2023-01-12T07:08:50.035Z,100.00
2023-01-12T07:11:17.495Z,100.00
2023-01-12T07:13:45.010Z,100.00
2023-01-12T07:16:13.667Z,100.00
2023-01-12T07:18:41.200Z,100.00
2023-01-12T07:21:13.553Z,100.00
2023-01-12T07:23:44.096Z,100.00
2023-01-12T07:26:12.270Z,100.00
2023-01-12T07:28:40.305Z,100.00
2023-01-12T07:31:09.311Z,100.00
2023-01-12T07:33:38.528Z,100.00
2023-01-12T07:36:06.930Z,100.00
2023-01-12T07:38:34.826Z,100.00
2023-01-12T07:41:03.458Z,100.00
2023-01-12T07:43:33.726Z,100.00
2023-01-12T07:46:02.163Z,100.00
2023-01-12T07:48:30.819Z,100.00
2023-01-12T07:51:00.036Z,100.00
2023-01-12T07:53:27.557Z,100.00
2023-01-12T07:55:55.046Z,100.00
2023-01-12T07:58:22.519Z,100.00
2023-01-12T08:00:50.049Z,100.00
2023-01-12T08:03:17.585Z,100.00
2023-01-12T08:05:45.097Z,100.00
2023-01-12T08:08:12.585Z,100.00
2023-01-12T08:10:40.986Z,100.00
2023-01-12T08:13:08.500Z,100.00
2023-01-12T08:15:49.480Z,100.00
2023-01-12T08:18:23.993Z,99.90
2023-01-12T08:20:54.349Z,100.00
2023-01-12T08:23:32.113Z,100.00
2023-01-12T08:26:05.113Z,99.60
2023-01-12T08:28:38.593Z,98.81
2023-01-12T08:31:11.125Z,100.00
2023-01-12T08:33:39.475Z,100.00
2023-01-12T08:38:44.729Z,100.00
2023-01-12T08:41:31.002Z,100.00
2023-01-12T08:44:02.220Z,100.00
2023-01-12T08:46:48.617Z,100.00
2023-01-12T08:49:19.370Z,100.00
2023-01-12T08:51:47.832Z,100.00
2023-01-12T08:54:19.008Z,100.00
2023-01-12T08:56:47.097Z,100.00
2023-01-12T08:59:14.681Z,100.00
2023-01-12T09:01:42.884Z,100.00
2023-01-12T09:04:10.466Z,100.00
2023-01-12T09:06:42.703Z,100.00
2023-01-12T09:09:14.772Z,100.00
2023-01-12T09:11:44.231Z,100.00
2023-01-12T09:14:15.509Z,100.00
2023-01-12T09:16:43.973Z,100.00
2023-01-12T09:19:11.781Z,100.00
2023-01-12T09:21:41.469Z,100.00
2023-01-12T09:24:09.599Z,100.00
2023-01-12T09:26:41.148Z,100.00
2023-01-12T09:29:10.907Z,100.00
2023-01-12T09:31:41.292Z,100.00
2023-01-12T09:34:08.951Z,100.00
2023-01-12T09:36:38.913Z,100.00
2023-01-12T09:39:12.825Z,100.00
2023-01-12T09:42:08.835Z,100.00
2023-01-12T09:45:04.120Z,100.00
2023-01-12T09:47:41.700Z,100.00
2023-01-12T09:50:17.592Z,100.00
2023-01-12T09:52:55.903Z,100.00
2023-01-12T09:55:26.631Z,100.00
2023-01-12T09:58:14.993Z,100.00
2023-01-12T10:00:44.214Z,100.00
2023-01-12T10:03:19.664Z,100.00
2023-01-12T10:06:00.787Z,100.00
2023-01-12T10:08:53.852Z,100.00
2023-01-12T10:12:09.007Z,100.00
2023-01-12T10:15:00.053Z,99.02
2023-01-12T10:17:51.578Z,98.03
2023-01-12T10:20:45.153Z,99.11
2023-01-12T10:23:16.380Z,98.03
2023-01-12T10:25:51.774Z,97.02
2023-01-12T10:28:33.248Z,95.08
2023-01-12T10:31:03.676Z,94.89
2023-01-12T10:33:34.676Z,97.73
2023-01-12T10:36:21.454Z,99.52
2023-01-12T10:39:04.567Z,99.42
2023-01-12T10:41:38.073Z,98.96
2023-01-12T10:44:23.425Z,94.13
2023-01-12T10:47:10.844Z,96.11
2023-01-12T10:49:38.393Z,96.96
2023-01-12T10:52:35.656Z,93.55
2023-01-12T10:55:03.360Z,97.28
2023-01-12T10:57:31.006Z,99.30
2023-01-12T11:00:02.785Z,95.17
2023-01-12T11:02:45.628Z,98.31
2023-01-12T11:05:38.720Z,99.91
2023-01-12T11:08:33.914Z,98.04
2023-01-12T11:11:24.367Z,98.75
2023-01-12T11:13:58.849Z,96.13
2023-01-12T11:16:33.891Z,95.88
2023-01-12T11:19:28.407Z,95.71
2023-01-12T11:22:08.164Z,96.09
2023-01-12T11:24:45.327Z,95.83
2023-01-12T11:27:28.851Z,94.31
2023-01-12T11:30:05.078Z,95.85
2023-01-12T11:32:50.107Z,100.00
2023-01-12T11:35:37.129Z,100.00
2023-01-12T11:38:21.184Z,96.61
2023-01-12T11:40:49.476Z,97.04
2023-01-12T11:43:51.090Z,97.27
2023-01-12T11:46:42.517Z,98.95
2023-01-12T11:49:27.508Z,93.96
2023-01-12T11:51:57.696Z,93.67
2023-01-12T11:54:31.190Z,93.24
2023-01-12T11:57:26.447Z,93.92
2023-01-12T11:59:53.839Z,95.44
2023-01-12T12:02:55.215Z,94.12
2023-01-12T12:06:03.872Z,93.56
2023-01-12T12:08:48.713Z,96.25
2023-01-12T12:11:54.983Z,96.40
2023-01-12T12:15:21.551Z,95.35
2023-01-12T12:18:09.742Z,95.13
2023-01-12T12:20:45.916Z,94.69
2023-01-12T12:23:30.249Z,95.52
2023-01-12T12:26:21.192Z,95.05
2023-01-12T12:29:33.906Z,95.61
2023-01-12T12:32:31.810Z,96.17
2023-01-12T12:35:30.065Z,95.60
2023-01-12T12:38:15.475Z,95.98
2023-01-12T12:41:55.093Z,95.70
2023-01-12T12:44:55.412Z,94.26
2023-01-12T12:47:52.843Z,93.61
2023-01-12T12:50:56.524Z,93.61
2023-01-12T12:53:37.042Z,93.41
2023-01-12T12:56:13.182Z,93.17
2023-01-12T12:58:52.700Z,93.24
2023-01-12T13:01:27.301Z,94.06
2023-01-12T13:04:03.308Z,94.41
2023-01-12T13:06:39.036Z,94.82
2023-01-12T13:09:12.480Z,94.67
2023-01-12T13:12:00.231Z,90.42
2023-01-12T13:14:35.925Z,89.87
2023-01-12T13:17:21.704Z,89.77
2023-01-12T13:20:16.786Z,89.77
2023-01-12T13:22:50.097Z,89.43
2023-01-12T13:25:29.592Z,91.81
2023-01-12T13:28:07.842Z,93.22
2023-01-12T13:30:40.216Z,92.33
2023-01-12T13:33:27.931Z,93.71
2023-01-12T13:36:08.140Z,94.93
2023-01-12T13:39:04.011Z,92.81
2023-01-12T13:41:53.729Z,92.43
2023-01-12T13:44:35.136Z,92.01
2023-01-12T13:47:24.962Z,94.41
2023-01-12T13:49:57.940Z,95.64
2023-01-12T13:52:35.974Z,96.95
2023-01-12T13:55:20.681Z,98.10
2023-01-12T13:58:02.547Z,98.95
2023-01-12T14:00:33.027Z,98.81
2023-01-12T14:03:03.104Z,99.02
2023-01-12T14:06:04.438Z,99.17
2023-01-12T14:08:55.751Z,98.56
2023-01-12T14:12:04.351Z,99.75
2023-01-12T14:15:15.030Z,100.00
2023-01-12T14:17:49.829Z,100.00
2023-01-12T14:20:26.667Z,100.00
2023-01-12T14:23:35.254Z,100.00
2023-01-12T14:26:13.500Z,100.00
2023-01-12T14:28:48.532Z,100.00
2023-01-12T14:31:23.183Z,100.00
2023-01-12T14:33:56.925Z,100.00
2023-01-12T14:36:42.801Z,100.00
2023-01-12T14:39:21.826Z,100.00
2023-01-12T14:42:13.246Z,100.00
2023-01-12T14:45:14.630Z,100.00
2023-01-12T14:47:43.512Z,100.00
2023-01-12T14:50:17.576Z,100.00
2023-01-12T14:52:47.007Z,100.00
2023-01-12T14:55:22.703Z,100.00
2023-01-12T14:57:57.541Z,100.00
2023-01-12T15:00:29.256Z,100.00
2023-01-12T15:03:01.037Z,100.00
2023-01-12T15:05:31.745Z,100.00
2023-01-12T15:08:04.831Z,100.00
2023-01-12T15:10:35.416Z,100.00
2023-01-12T15:13:29.979Z,100.00
2023-01-12T15:16:16.894Z,100.00
2023-01-12T15:19:03.234Z,100.00
2023-01-12T15:21:51.799Z,100.00
2023-01-12T15:24:45.486Z,100.00
2023-01-12T15:27:16.916Z,100.00
2023-01-12T15:30:04.636Z,100.00
2023-01-12T15:32:48.209Z,100.00
2023-01-12T15:35:26.603Z,100.00
2023-01-12T15:37:58.703Z,100.00
2023-01-12T15:40:28.006Z,100.00
2023-01-12T15:42:55.521Z,100.00
2023-01-12T15:45:39.766Z,100.00
2023-01-12T15:48:09.235Z,100.00
2023-01-12T15:50:42.829Z,100.00
2023-01-12T15:53:22.119Z,100.00
2023-01-12T15:55:50.287Z,100.00
2023-01-12T15:58:19.608Z,100.00
2023-01-12T16:00:47.396Z,100.00
2023-01-12T16:03:38.238Z,100.00
2023-01-12T16:06:04.661Z,100.00
2023-01-12T16:08:34.535Z,100.00
2023-01-12T16:11:13.484Z,100.00
2023-01-12T16:13:42.144Z,100.00
2023-01-12T16:16:16.631Z,100.00
2023-01-12T16:18:46.475Z,100.00
2023-01-12T16:21:19.631Z,100.00
2023-01-12T16:23:47.597Z,100.00
2023-01-12T16:26:16.451Z,100.00
2023-01-12T16:28:46.070Z,100.00
2023-01-12T16:31:15.662Z,100.00
2023-01-12T16:33:48.226Z,100.00
2023-01-12T16:36:19.189Z,100.00
2023-01-12T16:38:49.829Z,100.00
2023-01-12T16:41:44.067Z,100.00
2023-01-12T16:44:12.200Z,100.00
2023-01-12T16:46:39.748Z,100.00
2023-01-12T16:49:08.323Z,100.00
2023-01-12T16:51:35.866Z,100.00
2023-01-12T16:54:07.045Z,100.00
2023-01-12T16:56:35.609Z,100.00
2023-01-12T16:59:05.469Z,100.00
2023-01-12T17:01:35.584Z,100.00
2023-01-12T17:04:03.355Z,100.00
2023-01-12T17:06:31.554Z,100.00
2023-01-12T17:09:03.270Z,100.00
2023-01-12T17:11:35.094Z,100.00
2023-01-12T17:14:22.880Z,100.00
2023-01-12T17:16:57.671Z,100.00
2023-01-12T17:19:28.244Z,100.00
2023-01-12T17:21:58.352Z,100.00
2023-01-12T17:24:30.483Z,100.00
2023-01-12T17:26:58.723Z,100.00
2023-01-12T17:29:28.186Z,100.00
2023-01-12T17:32:06.009Z,100.00
2023-01-12T17:34:43.283Z,100.00
2023-01-12T17:37:12.753Z,100.00
2023-01-12T17:39:45.083Z,100.00
2023-01-12T17:42:35.290Z,100.00
2023-01-12T17:45:05.838Z,100.00
2023-01-12T17:47:38.781Z,100.00
2023-01-12T17:50:11.107Z,100.00
2023-01-12T17:52:38.690Z,100.00
2023-01-12T17:55:06.912Z,100.00
2023-01-12T17:57:36.491Z,100.00
2023-01-12T18:00:16.268Z,100.00
2023-01-12T18:02:45.656Z,100.00
2023-01-12T18:05:13.391Z,100.00
2023-01-12T18:07:42.130Z,100.00
2023-01-12T18:10:11.581Z,100.00
2023-01-12T18:12:40.426Z,100.00
2023-01-12T18:15:10.320Z,100.00
2023-01-12T18:17:39.515Z,100.00
2023-01-12T18:20:09.387Z,100.00
2023-01-12T18:22:37.163Z,100.00
2023-01-12T18:25:06.758Z,100.00
2023-01-12T18:27:34.305Z,100.00
2023-01-12T18:30:02.306Z,100.00
2023-01-12T18:32:30.623Z,100.00
2023-01-12T18:34:59.419Z,100.00
2023-01-12T18:37:28.430Z,100.00
2023-01-12T18:40:01.439Z,100.00
2023-01-12T18:42:49.068Z,100.00
2023-01-12T18:45:21.957Z,100.00
2023-01-12T18:48:09.437Z,100.00
2023-01-12T18:50:57.000Z,100.00
2023-01-12T18:53:33.578Z,100.00
2023-01-12T18:56:09.450Z,100.00
2023-01-12T18:58:44.856Z,100.00
2023-01-12T19:01:32.261Z,100.00
2023-01-12T19:04:03.294Z,100.00
2023-01-12T19:06:47.215Z,100.00
2023-01-12T19:09:34.954Z,100.00
2023-01-12T19:12:12.150Z,100.00
2023-01-12T19:15:00.325Z,100.00
2023-01-12T19:17:35.994Z,99.05
2023-01-12T19:20:10.315Z,98.89
2023-01-12T19:23:00.026Z,100.00
2023-01-12T19:25:50.470Z,100.00
2023-01-12T19:28:36.673Z,100.00
2023-01-12T19:31:16.545Z,100.00
2023-01-12T19:33:46.124Z,98.76
2023-01-12T19:36:20.049Z,98.61
2023-01-12T19:38:52.974Z,100.00
2023-01-12T19:41:41.594Z,100.00
2023-01-12T19:44:09.524Z,100.00
2023-01-12T19:46:38.090Z,100.00
2023-01-12T19:49:08.770Z,100.00
2023-01-12T19:51:43.311Z,100.00
2023-01-12T19:54:13.177Z,100.00
2023-01-12T19:56:59.188Z,100.00
2023-01-12T19:59:28.877Z,100.00
2023-01-12T20:02:21.459Z,99.71
2023-01-12T20:04:51.134Z,99.76
2023-01-12T20:07:21.392Z,100.00
2023-01-12T20:09:51.943Z,97.16
2023-01-12T20:12:22.330Z,97.94
2023-01-12T20:14:55.245Z,97.06
2023-01-12T20:17:28.222Z,97.65
2023-01-12T20:20:03.515Z,96.05
2023-01-12T20:22:37.072Z,95.14
2023-01-12T20:25:07.577Z,95.25
2023-01-12T20:27:37.463Z,95.73
2023-01-12T20:30:11.475Z,96.31
2023-01-12T20:32:46.761Z,97.15
2023-01-12T20:35:23.124Z,97.62
2023-01-12T20:37:55.330Z,95.84
2023-01-12T20:40:23.374Z,97.53
2023-01-12T20:42:51.534Z,98.37
2023-01-12T20:45:19.299Z,99.08
2023-01-12T20:47:47.811Z,99.27
2023-01-12T20:50:16.917Z,96.46
2023-01-12T20:52:48.273Z,93.89
2023-01-12T20:55:15.977Z,94.17
2023-01-12T20:57:43.887Z,95.76
2023-01-12T21:00:14.277Z,94.78
2023-01-12T21:02:42.832Z,95.30
2023-01-12T21:05:14.730Z,96.08
2023-01-12T21:07:44.789Z,98.06
2023-01-12T21:10:14.108Z,98.27
2023-01-12T21:12:44.205Z,97.01
2023-01-12T21:15:13.711Z,96.04
2023-01-12T21:17:42.918Z,96.16
2023-01-12T21:20:12.401Z,97.68
2023-01-12T21:22:40.062Z,99.93
2023-01-12T21:25:11.129Z,98.56
2023-01-12T21:27:39.526Z,96.77
2023-01-12T21:30:11.252Z,97.48
2023-01-12T21:32:39.032Z,97.35
2023-01-12T21:35:10.658Z,98.47
2023-01-12T21:37:38.249Z,97.93
2023-01-12T21:40:07.000Z,96.05
2023-01-12T21:42:53.141Z,97.98
2023-01-12T21:45:23.732Z,98.73
2023-01-12T21:47:52.204Z,98.56
2023-01-12T21:50:19.684Z,98.25
2023-01-12T21:52:48.221Z,97.62
2023-01-12T21:55:16.005Z,99.08
2023-01-12T21:57:46.547Z,99.84
2023-01-12T22:00:14.968Z,97.88
2023-01-12T22:02:43.144Z,98.98
2023-01-12T22:05:13.703Z,100.00
2023-01-12T22:07:41.878Z,100.00
2023-01-12T22:10:22.090Z,98.50
2023-01-12T22:12:55.711Z,99.09
2023-01-12T22:15:25.007Z,99.54
2023-01-12T22:17:54.688Z,100.00
2023-01-12T22:20:27.800Z,98.09
2023-01-12T22:22:55.765Z,99.07
2023-01-12T22:25:23.543Z,98.08
2023-01-12T22:27:51.145Z,98.22
2023-01-12T22:30:24.126Z,99.34
2023-01-12T22:32:56.293Z,100.00
2023-01-12T22:35:26.208Z,100.00
2023-01-12T22:37:55.853Z,100.00
2023-01-12T22:40:29.860Z,100.00
2023-01-12T22:43:16.061Z,100.00
2023-01-12T22:45:45.767Z,100.00
2023-01-12T22:48:13.263Z,100.00
2023-01-12T22:50:40.826Z,100.00
2023-01-12T22:53:08.384Z,100.00
2023-01-12T22:55:42.021Z,100.00
2023-01-12T22:58:09.627Z,100.00
2023-01-12T23:00:39.821Z,100.00
2023-01-12T23:03:12.040Z,100.00
2023-01-12T23:05:56.247Z,100.00
2023-01-12T23:08:25.370Z,100.00
2023-01-12T23:11:01.187Z,100.00
2023-01-12T23:13:28.849Z,100.00
2023-01-12T23:15:58.139Z,100.00
2023-01-12T23:18:29.482Z,100.00
2023-01-12T23:21:11.198Z,99.75
2023-01-12T23:23:46.635Z,100.00
2023-01-12T23:26:18.450Z,100.00
2023-01-12T23:28:50.218Z,100.00
2023-01-12T23:31:21.706Z,100.00
2023-01-12T23:33:50.541Z,100.00
2023-01-12T23:36:21.902Z,100.00
2023-01-12T23:39:01.071Z,100.00
2023-01-12T23:41:32.345Z,100.00
2023-01-12T23:44:02.696Z,100.00
2023-01-12T23:46:33.904Z,100.00
2023-01-12T23:49:01.940Z,100.00
2023-01-12T23:51:31.220Z,100.00
2023-01-12T23:54:03.068Z,100.00
2023-01-12T23:56:32.918Z,100.00
2023-01-12T23:59:00.739Z,100.00
